sensor_id;sensor_type;location;lat;lon;timestamp;pressure;altitude;pressure_sealevel;temperature;humidity
28921;BME280;16035;53.594;9.952;2023-07-13T00:01:43;101157.78;;;17.64;75.21
28921;BME280;16035;53.594;9.952;2023-07-13T00:03:43;101152.28;;;17.64;75.21
28921;BME280;16035;53.594;9.952;2023-07-13T00:05:43;101153.09;;;17.64;75.18
28921;BME280;16035;53.594;9.952;2023-07-13T00:07:44;101145.13;;;17.63;75.17
28921;BME280;16035;53.594;9.952;2023-07-13T00:09:47;101147.06;;;17.62;75.22
28921;BME280;16035;53.594;9.952;2023-07-13T00:11:51;101149.31;;;17.60;75.39
28921;BME280;16035;53.594;9.952;2023-07-13T00:13:52;101146.03;;;17.58;75.15
28921;BME280;16035;53.594;9.952;2023-07-13T00:15:53;101146.66;;;17.55;75.19
28921;BME280;16035;53.594;9.952;2023-07-13T00:17:55;101151.34;;;17.55;75.28
28921;BME280;16035;53.594;9.952;2023-07-13T00:19:56;101153.25;;;17.54;75.30
28921;BME280;16035;53.594;9.952;2023-07-13T00:21:56;101151.09;;;17.51;75.40
28921;BME280;16035;53.594;9.952;2023-07-13T00:23:57;101150.56;;;17.49;75.17
28921;BME280;16035;53.594;9.952;2023-07-13T00:25:57;101150.34;;;17.46;75.18
28921;BME280;16035;53.594;9.952;2023-07-13T00:27:58;101152.59;;;17.43;75.72
28921;BME280;16035;53.594;9.952;2023-07-13T00:29:58;101149.03;;;17.43;75.56
28921;BME280;16035;53.594;9.952;2023-07-13T00:31:59;101145.75;;;17.41;75.38
28921;BME280;16035;53.594;9.952;2023-07-13T00:33:59;101140.56;;;17.39;75.43
28921;BME280;16035;53.594;9.952;2023-07-13T00:36:00;101149.59;;;17.40;75.39
28921;BME280;16035;53.594;9.952;2023-07-13T00:38:00;101143.59;;;17.38;75.15
28921;BME280;16035;53.594;9.952;2023-07-13T00:40:02;101159.56;;;17.36;75.42
28921;BME280;16035;53.594;9.952;2023-07-13T00:42:03;101159.06;;;17.34;75.49
28921;BME280;16035;53.594;9.952;2023-07-13T00:44:04;101158.50;;;17.32;75.56
28921;BME280;16035;53.594;9.952;2023-07-13T00:46:18;101152.50;;;17.30;75.69
28921;BME280;16035;53.594;9.952;2023-07-13T00:48:20;101159.41;;;17.27;75.29
28921;BME280;16035;53.594;9.952;2023-07-13T00:50:22;101163.25;;;17.26;75.47
28921;BME280;16035;53.594;9.952;2023-07-13T00:52:23;101159.47;;;17.22;75.61
28921;BME280;16035;53.594;9.952;2023-07-13T00:54:28;101160.59;;;17.21;75.45
28921;BME280;16035;53.594;9.952;2023-07-13T00:56:31;101154.28;;;17.21;75.55
28921;BME280;16035;53.594;9.952;2023-07-13T00:58:33;101168.03;;;17.21;75.59
28921;BME280;16035;53.594;9.952;2023-07-13T01:00:35;101168.59;;;17.17;75.40
28921;BME280;16035;53.594;9.952;2023-07-13T01:02:39;101164.22;;;17.16;75.52
28921;BME280;16035;53.594;9.952;2023-07-13T01:04:40;101163.72;;;17.14;75.52
28921;BME280;16035;53.594;9.952;2023-07-13T01:06:45;101167.56;;;17.13;75.54
28921;BME280;16035;53.594;9.952;2023-07-13T01:08:47;101161.56;;;17.11;75.68
28921;BME280;16035;53.594;9.952;2023-07-13T01:10:52;101166.22;;;17.11;75.70
28921;BME280;16035;53.594;9.952;2023-07-13T01:12:54;101168.44;;;17.09;75.58
28921;BME280;16035;53.594;9.952;2023-07-13T01:14:58;101161.56;;;17.11;75.75
28921;BME280;16035;53.594;9.952;2023-07-13T01:17:00;101159.94;;;17.10;75.46
28921;BME280;16035;53.594;9.952;2023-07-13T01:19:01;101162.38;;;17.12;75.56
28921;BME280;16035;53.594;9.952;2023-07-13T01:21:04;101161.56;;;17.11;75.68
28921;BME280;16035;53.594;9.952;2023-07-13T01:23:07;101158.25;;;17.09;75.59
28921;BME280;16035;53.594;9.952;2023-07-13T01:25:07;101162.94;;;17.09;75.63
28921;BME280;16035;53.594;9.952;2023-07-13T01:27:10;101162.66;;;17.10;75.84
28921;BME280;16035;53.594;9.952;2023-07-13T01:29:11;101155.53;;;17.09;75.63
28921;BME280;16035;53.594;9.952;2023-07-13T01:31:11;101156.63;;;17.08;76.06
28921;BME280;16035;53.594;9.952;2023-07-13T01:33:16;101166.00;;;17.07;75.96
28921;BME280;16035;53.594;9.952;2023-07-13T01:35:17;101168.75;;;17.07;75.80
28921;BME280;16035;53.594;9.952;2023-07-13T01:37:17;101164.06;;;17.08;75.70
28921;BME280;16035;53.594;9.952;2023-07-13T01:39:18;101166.00;;;17.07;75.84
28921;BME280;16035;53.594;9.952;2023-07-13T01:41:18;101155.81;;;17.08;76.16
28921;BME280;16035;53.594;9.952;2023-07-13T01:43:19;101159.38;;;17.08;75.74
28921;BME280;16035;53.594;9.952;2023-07-13T01:45:19;101159.94;;;17.10;75.57
28921;BME280;16035;53.594;9.952;2023-07-13T01:47:20;101158.81;;;17.11;75.74
28921;BME280;16035;53.594;9.952;2023-07-13T01:49:20;101151.38;;;17.12;75.85
28921;BME280;16035;53.594;9.952;2023-07-13T01:51:21;101154.13;;;17.12;76.00
28921;BME280;16035;53.594;9.952;2023-07-13T01:53:21;101152.19;;;17.12;75.91
28921;BME280;16035;53.594;9.952;2023-07-13T01:55:22;101151.38;;;17.12;75.98
28921;BME280;16035;53.594;9.952;2023-07-13T01:57:22;101152.19;;;17.12;75.96
28921;BME280;16035;53.594;9.952;2023-07-13T01:59:22;101152.19;;;17.12;76.02
28921;BME280;16035;53.594;9.952;2023-07-13T02:01:23;101160.72;;;17.11;75.82
28921;BME280;16035;53.594;9.952;2023-07-13T02:03:23;101152.50;;;17.11;76.04
28921;BME280;16035;53.594;9.952;2023-07-13T02:05:24;101152.50;;;17.11;76.01
28921;BME280;16035;53.594;9.952;2023-07-13T02:07:24;101154.44;;;17.10;75.94
28921;BME280;16035;53.594;9.952;2023-07-13T02:09:24;101155.53;;;17.09;75.97
28921;BME280;16035;53.594;9.952;2023-07-13T02:11:25;101157.75;;;17.07;75.97
28921;BME280;16035;53.594;9.952;2023-07-13T02:13:32;101148.69;;;17.07;76.11
28921;BME280;16035;53.594;9.952;2023-07-13T02:15:32;101155.00;;;17.07;76.15
28921;BME280;16035;53.594;9.952;2023-07-13T02:17:34;101150.34;;;17.08;76.13
28921;BME280;16035;53.594;9.952;2023-07-13T02:19:35;101160.81;;;17.06;76.09
28921;BME280;16035;53.594;9.952;2023-07-13T02:21:36;101159.97;;;17.05;76.02
28921;BME280;16035;53.594;9.952;2023-07-13T02:23:36;101163.25;;;17.07;76.21
28921;BME280;16035;53.594;9.952;2023-07-13T02:25:37;101167.13;;;17.06;76.25
28921;BME280;16035;53.594;9.952;2023-07-13T02:27:37;101163.25;;;17.07;76.29
28921;BME280;16035;53.594;9.952;2023-07-13T02:29:37;101163.56;;;17.06;76.17
28921;BME280;16035;53.594;9.952;2023-07-13T02:31:38;101161.91;;;17.05;76.19
28921;BME280;16035;53.594;9.952;2023-07-13T02:33:38;101168.50;;;17.04;76.55
28921;BME280;16035;53.594;9.952;2023-07-13T02:35:38;101160.25;;;17.04;76.09
28921;BME280;16035;53.594;9.952;2023-07-13T02:37:39;101163.31;;;17.02;76.13
28921;BME280;16035;53.594;9.952;2023-07-13T02:39:39;101159.75;;;17.02;76.30
28921;BME280;16035;53.594;9.952;2023-07-13T02:41:39;101166.88;;;17.03;76.16
28921;BME280;16035;53.594;9.952;2023-07-13T02:43:40;101164.72;;;17.00;76.29
28921;BME280;16035;53.594;9.952;2023-07-13T02:45:43;101163.09;;;16.99;76.24
28921;BME280;16035;53.594;9.952;2023-07-13T02:47:44;101163.91;;;16.99;76.42
28921;BME280;16035;53.594;9.952;2023-07-13T02:49:44;101156.78;;;16.98;76.43
28921;BME280;16035;53.594;9.952;2023-07-13T02:51:44;101159.22;;;17.00;76.49
28921;BME280;16035;53.594;9.952;2023-07-13T02:53:45;101149.66;;;16.97;76.46
28921;BME280;16035;53.594;9.952;2023-07-13T02:55:45;101157.34;;;16.95;76.21
28921;BME280;16035;53.594;9.952;2023-07-13T02:57:47;101155.72;;;16.94;76.41
28921;BME280;16035;53.594;9.952;2023-07-13T02:59:47;101163.66;;;16.96;76.47
28921;BME280;16035;53.594;9.952;2023-07-13T03:01:48;101162.34;;;16.93;76.28
28921;BME280;16035;53.594;9.952;2023-07-13T03:03:49;101164.53;;;16.91;76.46
28921;BME280;16035;53.594;9.952;2023-07-13T03:05:57;101165.34;;;16.91;76.65
28921;BME280;16035;53.594;9.952;2023-07-13T03:07:57;101162.41;;;16.88;76.54
28921;BME280;16035;53.594;9.952;2023-07-13T03:09:58;101158.81;;;16.87;76.50
28921;BME280;16035;53.594;9.952;2023-07-13T03:11:59;101156.91;;;16.88;76.44
28921;BME280;16035;53.594;9.952;2023-07-13T03:13:59;101151.19;;;16.84;76.35
28921;BME280;16035;53.594;9.952;2023-07-13T03:16:00;101152.31;;;16.83;76.44
28921;BME280;16035;53.594;9.952;2023-07-13T03:18:00;101152.88;;;16.80;76.49
28921;BME280;16035;53.594;9.952;2023-07-13T03:20:00;101155.31;;;16.82;76.46
28921;BME280;16035;53.594;9.952;2023-07-13T03:22:01;101154.19;;;16.83;76.59
28921;BME280;16035;53.594;9.952;2023-07-13T03:24:01;101147.09;;;16.82;76.52
28921;BME280;16035;53.594;9.952;2023-07-13T03:26:09;101158.66;;;16.79;76.60
28921;BME280;16035;53.594;9.952;2023-07-13T03:28:10;101153.19;;;16.79;76.42
28921;BME280;16035;53.594;9.952;2023-07-13T03:30:11;101155.94;;;16.79;76.49
28921;BME280;16035;53.594;9.952;2023-07-13T03:32:11;101161.41;;;16.79;76.56
28921;BME280;16035;53.594;9.952;2023-07-13T03:34:12;101157.00;;;16.78;76.63
28921;BME280;16035;53.594;9.952;2023-07-13T03:36:20;101149.38;;;16.75;76.49
28921;BME280;16035;53.594;9.952;2023-07-13T03:38:21;101155.16;;;16.73;76.55
28921;BME280;16035;53.594;9.952;2023-07-13T03:40:22;101154.31;;;16.73;76.54
28921;BME280;16035;53.594;9.952;2023-07-13T03:42:22;101151.03;;;16.71;76.63
28921;BME280;16035;53.594;9.952;2023-07-13T03:44:22;101160.09;;;16.71;76.56
28921;BME280;16035;53.594;9.952;2023-07-13T03:46:23;101152.44;;;16.68;76.58
28921;BME280;16035;53.594;9.952;2023-07-13T03:48:23;101151.63;;;16.67;76.53
28921;BME280;16035;53.594;9.952;2023-07-13T03:50:23;101152.44;;;16.68;76.57
28921;BME280;16035;53.594;9.952;2023-07-13T03:52:24;101157.09;;;16.67;76.36
28921;BME280;16035;53.594;9.952;2023-07-13T03:54:24;101155.47;;;16.66;76.65
28921;BME280;16035;53.594;9.952;2023-07-13T03:56:24;101153.00;;;16.65;76.66
28921;BME280;16035;53.594;9.952;2023-07-13T04:00:28;101162.34;;;16.64;76.63
28921;BME280;16035;53.594;9.952;2023-07-13T04:02:28;101173.31;;;16.64;76.53
28921;BME280;16035;53.594;9.952;2023-07-13T04:04:29;101166.72;;;16.65;76.72
28921;BME280;16035;53.594;9.952;2023-07-13T04:06:31;101171.41;;;16.64;76.65
28921;BME280;16035;53.594;9.952;2023-07-13T04:08:34;101171.13;;;16.66;76.61
28921;BME280;16035;53.594;9.952;2023-07-13T04:10:35;101168.38;;;16.66;76.80
28921;BME280;16035;53.594;9.952;2023-07-13T04:12:35;101166.44;;;16.66;76.52
28921;BME280;16035;53.594;9.952;2023-07-13T04:14:37;101160.16;;;16.66;76.57
28921;BME280;16035;53.594;9.952;2023-07-13T04:16:37;101161.53;;;16.63;76.52
28921;BME280;16035;53.594;9.952;2023-07-13T04:18:37;101163.78;;;16.61;76.54
28921;BME280;16035;53.594;9.952;2023-07-13T04:20:38;101162.97;;;16.61;76.68
28921;BME280;16035;53.594;9.952;2023-07-13T04:22:38;101157.16;;;16.62;76.48
28921;BME280;16035;53.594;9.952;2023-07-13T04:24:38;101165.41;;;16.62;76.59
28921;BME280;16035;53.594;9.952;2023-07-13T04:26:39;101163.47;;;16.63;76.63
28921;BME280;16035;53.594;9.952;2023-07-13T04:28:40;101162.09;;;16.65;76.47
28921;BME280;16035;53.594;9.952;2023-07-13T04:30:40;101166.44;;;16.66;76.52
28921;BME280;16035;53.594;9.952;2023-07-13T04:32:40;101163.72;;;16.66;76.54
28921;BME280;16035;53.594;9.952;2023-07-13T04:34:40;101168.09;;;16.67;76.57
28921;BME280;16035;53.594;9.952;2023-07-13T04:36:41;101161.47;;;16.68;76.52
28921;BME280;16035;53.594;9.952;2023-07-13T04:38:41;101158.72;;;16.68;76.72
28921;BME280;16035;53.594;9.952;2023-07-13T04:40:45;101168.31;;;16.71;76.76
28921;BME280;16035;53.594;9.952;2023-07-13T04:42:46;101170.22;;;16.76;76.48
28921;BME280;16035;53.594;9.952;2023-07-13T04:44:50;101172.66;;;16.77;76.69
28921;BME280;16035;53.594;9.952;2023-07-13T04:46:51;101164.97;;;16.79;76.48
28921;BME280;16035;53.594;9.952;2023-07-13T04:48:51;101172.41;;;16.79;76.77
28921;BME280;16035;53.594;9.952;2023-07-13T04:50:57;101174.03;;;16.80;76.57
28921;BME280;16035;53.594;9.952;2023-07-13T04:52:58;101171.28;;;16.80;76.80
28921;BME280;16035;53.594;9.952;2023-07-13T04:54:59;101176.16;;;16.83;76.69
28921;BME280;16035;53.594;9.952;2023-07-13T04:57:00;101180.78;;;16.87;76.62
28921;BME280;16035;53.594;9.952;2023-07-13T04:59:01;101178.56;;;16.89;76.84
28921;BME280;16035;53.594;9.952;2023-07-13T05:01:05;101178.00;;;16.92;76.77
28921;BME280;16035;53.594;9.952;2023-07-13T05:03:05;101182.38;;;16.93;76.66
28921;BME280;16035;53.594;9.952;2023-07-13T05:05:06;101181.56;;;16.93;76.68
28921;BME280;16035;53.594;9.952;2023-07-13T05:07:07;101193.84;;;16.96;76.85
28921;BME280;16035;53.594;9.952;2023-07-13T05:09:07;101192.16;;;17.00;76.76
28921;BME280;16035;53.594;9.952;2023-07-13T05:11:08;101194.34;;;17.03;76.89
28921;BME280;16035;53.594;9.952;2023-07-13T05:13:08;101197.31;;;17.06;76.76
28921;BME280;16035;53.594;9.952;2023-07-13T05:15:09;101194.56;;;17.06;76.70
28921;BME280;16035;53.594;9.952;2023-07-13T05:17:10;101195.38;;;17.07;76.88
28921;BME280;16035;53.594;9.952;2023-07-13T05:19:12;101200.50;;;17.13;76.82
28921;BME280;16035;53.594;9.952;2023-07-13T05:21:12;101198.81;;;17.17;76.76
28921;BME280;16035;53.594;9.952;2023-07-13T05:23:12;101194.91;;;17.24;76.93
28921;BME280;16035;53.594;9.952;2023-07-13T05:25:13;101198.91;;;17.31;76.70
28921;BME280;16035;53.594;9.952;2023-07-13T05:27:14;101193.56;;;17.40;76.69
28921;BME280;16035;53.594;9.952;2023-07-13T05:29:14;101196.78;;;17.47;76.67
28921;BME280;16035;53.594;9.952;2023-07-13T05:31:14;101202.19;;;17.52;76.67
28921;BME280;16035;53.594;9.952;2023-07-13T05:33:15;101196.69;;;17.52;76.49
28921;BME280;16035;53.594;9.952;2023-07-13T05:35:16;101202.28;;;17.47;76.35
28921;BME280;16035;53.594;9.952;2023-07-13T05:37:16;101207.53;;;17.43;76.26
28921;BME280;16035;53.594;9.952;2023-07-13T05:39:16;101205.69;;;17.39;76.21
28921;BME280;16035;53.594;9.952;2023-07-13T05:41:17;101208.41;;;17.39;76.50
28921;BME280;16035;53.594;9.952;2023-07-13T05:43:17;101212.78;;;17.40;76.87
28921;BME280;16035;53.594;9.952;2023-07-13T05:45:17;101201.53;;;17.41;76.83
28921;BME280;16035;53.594;9.952;2023-07-13T05:47:18;101206.72;;;17.43;76.51
28921;BME280;16035;53.594;9.952;2023-07-13T05:49:18;101208.94;;;17.41;76.55
28921;BME280;16035;53.594;9.952;2023-07-13T05:51:18;101218.22;;;17.45;76.59
28921;BME280;16035;53.594;9.952;2023-07-13T05:53:19;101219.56;;;17.48;76.73
28921;BME280;16035;53.594;9.952;2023-07-13T05:55:20;101218.19;;;17.50;76.66
28921;BME280;16035;53.594;9.952;2023-07-13T05:57:20;101220.84;;;17.55;76.80
28921;BME280;16035;53.594;9.952;2023-07-13T05:59:21;101222.47;;;17.56;76.86
28921;BME280;16035;53.594;9.952;2023-07-13T06:01:21;101218.59;;;17.57;76.38
28921;BME280;16035;53.594;9.952;2023-07-13T06:03:22;101228.47;;;17.58;76.47
28921;BME280;16035;53.594;9.952;2023-07-13T06:05:22;101223.53;;;17.60;76.63
28921;BME280;16035;53.594;9.952;2023-07-13T06:07:23;101222.09;;;17.63;76.45
28921;BME280;16035;53.594;9.952;2023-07-13T06:09:23;101224.34;;;17.61;76.17
28921;BME280;16035;53.594;9.952;2023-07-13T06:11:25;101230.94;;;17.60;76.44
28921;BME280;16035;53.594;9.952;2023-07-13T06:13:26;101240.53;;;17.62;76.29
28921;BME280;16035;53.594;9.952;2023-07-13T06:15:27;101232.81;;;17.64;76.38
28921;BME280;16035;53.594;9.952;2023-07-13T06:17:27;101230.28;;;17.68;76.42
28921;BME280;16035;53.594;9.952;2023-07-13T06:19:28;101237.66;;;17.73;76.15
28921;BME280;16035;53.594;9.952;2023-07-13T06:21:28;101236.56;;;17.74;76.48
28921;BME280;16035;53.594;9.952;2023-07-13T06:23:29;101231.56;;;17.76;76.76
28921;BME280;16035;53.594;9.952;2023-07-13T06:25:29;101233.72;;;17.79;76.60
28921;BME280;16035;53.594;9.952;2023-07-13T06:27:30;101241.91;;;17.84;76.43
28921;BME280;16035;53.594;9.952;2023-07-13T06:29:30;101244.34;;;17.85;76.51
28921;BME280;16035;53.594;9.952;2023-07-13T06:31:31;101245.19;;;17.86;76.18
28921;BME280;16035;53.594;9.952;2023-07-13T06:33:32;101247.63;;;17.87;76.52
28921;BME280;16035;53.594;9.952;2023-07-13T06:35:33;101243.25;;;17.86;76.16
28921;BME280;16035;53.594;9.952;2023-07-13T06:37:33;101244.56;;;17.89;75.67
28921;BME280;16035;53.594;9.952;2023-07-13T06:39:34;101248.34;;;17.93;75.71
28921;BME280;16035;53.594;9.952;2023-07-13T06:41:34;101241.47;;;17.96;75.76
28921;BME280;16035;53.594;9.952;2023-07-13T06:43:34;101238.31;;;18.02;75.79
28921;BME280;16035;53.594;9.952;2023-07-13T06:45:40;101236.59;;;18.06;75.90
28921;BME280;16035;53.594;9.952;2023-07-13T06:47:41;101241.78;;;18.08;75.01
28921;BME280;16035;53.594;9.952;2023-07-13T06:49:41;101235.47;;;18.07;75.20
28921;BME280;16035;53.594;9.952;2023-07-13T06:51:42;101239.88;;;18.08;75.38
28921;BME280;16035;53.594;9.952;2023-07-13T06:53:42;101234.31;;;18.13;75.35
28921;BME280;16035;53.594;9.952;2023-07-13T06:55:43;101237.47;;;18.21;75.68
28921;BME280;16035;53.594;9.952;2023-07-13T06:57:45;101240.44;;;18.24;75.74
28921;BME280;16035;53.594;9.952;2023-07-13T06:59:45;101233.72;;;18.30;75.33
28921;BME280;16035;53.594;9.952;2023-07-13T07:01:46;101234.47;;;18.36;75.14
28921;BME280;16035;53.594;9.952;2023-07-13T07:03:46;101242.41;;;18.37;75.09
28921;BME280;16035;53.594;9.952;2023-07-13T07:05:47;101237.94;;;18.41;75.16
28921;BME280;16035;53.594;9.952;2023-07-13T07:07:49;101240.59;;;18.47;75.26
28921;BME280;16035;53.594;9.952;2023-07-13T07:09:50;101238.78;;;18.56;75.02
28921;BME280;16035;53.594;9.952;2023-07-13T07:11:50;101243.09;;;18.62;75.12
28921;BME280;16035;53.594;9.952;2023-07-13T07:13:51;101236.38;;;18.68;74.83
28921;BME280;16035;53.594;9.952;2023-07-13T07:15:52;101241.22;;;18.76;74.90
28921;BME280;16035;53.594;9.952;2023-07-13T07:17:52;101235.63;;;18.81;74.54
28921;BME280;16035;53.594;9.952;2023-07-13T07:19:53;101243.78;;;18.86;74.38
28921;BME280;16035;53.594;9.952;2023-07-13T07:21:55;101242.38;;;18.89;74.10
28921;BME280;16035;53.594;9.952;2023-07-13T07:23:56;101248.16;;;18.87;74.27
28921;BME280;16035;53.594;9.952;2023-07-13T07:25:56;101252.03;;;18.86;74.27
28921;BME280;16035;53.594;9.952;2023-07-13T07:27:57;101245.41;;;18.87;73.97
28921;BME280;16035;53.594;9.952;2023-07-13T07:29:57;101249.72;;;18.93;74.21
28921;BME280;16035;53.594;9.952;2023-07-13T07:31:59;101248.69;;;19.03;74.20
28921;BME280;16035;53.594;9.952;2023-07-13T07:34:00;101248.16;;;19.15;74.22
28921;BME280;16035;53.594;9.952;2023-07-13T07:36:01;101244.69;;;19.23;74.20
28921;BME280;16035;53.594;9.952;2023-07-13T07:38:02;101245.81;;;19.36;73.71
28921;BME280;16035;53.594;9.952;2023-07-13T07:40:02;101247.31;;;19.42;73.49
28921;BME280;16035;53.594;9.952;2023-07-13T07:42:03;101247.94;;;19.53;73.28
28921;BME280;16035;53.594;9.952;2023-07-13T07:44:03;101243.34;;;19.62;73.41
28921;BME280;16035;53.594;9.952;2023-07-13T07:46:04;101249.16;;;19.74;73.22
28921;BME280;16035;53.594;9.952;2023-07-13T07:48:05;101249.03;;;19.79;72.95
28921;BME280;16035;53.594;9.952;2023-07-13T07:50:06;101249.13;;;19.88;72.55
28921;BME280;16035;53.594;9.952;2023-07-13T07:52:07;101242.47;;;19.89;72.57
28921;BME280;16035;53.594;9.952;2023-07-13T07:54:07;101243.06;;;19.86;72.64
28921;BME280;16035;53.594;9.952;2023-07-13T07:56:07;101248.50;;;19.77;72.21
28921;BME280;16035;53.594;9.952;2023-07-13T07:58:10;101246.34;;;19.88;72.50
28921;BME280;16035;53.594;9.952;2023-07-13T08:00:10;101248.44;;;20.05;72.28
28921;BME280;16035;53.594;9.952;2023-07-13T08:02:11;101242.84;;;20.41;71.85
28921;BME280;16035;53.594;9.952;2023-07-13T08:04:12;101244.63;;;20.59;71.68
28921;BME280;16035;53.594;9.952;2023-07-13T08:06:12;101247.53;;;20.54;70.73
28921;BME280;16035;53.594;9.952;2023-07-13T08:08:13;101239.91;;;20.60;70.42
28921;BME280;16035;53.594;9.952;2023-07-13T08:10:14;101237.47;;;20.58;70.28
28921;BME280;16035;53.594;9.952;2023-07-13T08:12:14;101234.63;;;20.72;71.15
28921;BME280;16035;53.594;9.952;2023-07-13T08:14:15;101237.97;;;21.00;71.18
28921;BME280;16035;53.594;9.952;2023-07-13T08:16:16;101235.44;;;21.12;70.63
28921;BME280;16035;53.594;9.952;2023-07-13T08:18:17;101225.66;;;21.15;70.00
28921;BME280;16035;53.594;9.952;2023-07-13T08:20:17;101239.19;;;21.16;69.44
28921;BME280;16035;53.594;9.952;2023-07-13T08:22:18;101236.31;;;20.90;67.80
28921;BME280;16035;53.594;9.952;2023-07-13T08:24:18;101232.56;;;20.86;68.29
28921;BME280;16035;53.594;9.952;2023-07-13T08:26:21;101247.13;;;21.09;69.09
28921;BME280;16035;53.594;9.952;2023-07-13T08:28:22;101240.31;;;21.15;68.79
28921;BME280;16035;53.594;9.952;2023-07-13T08:30:22;101245.00;;;21.15;68.67
28921;BME280;16035;53.594;9.952;2023-07-13T08:32:23;101254.38;;;21.36;68.40
28921;BME280;16035;53.594;9.952;2023-07-13T08:34:23;101255.94;;;21.29;67.06
28921;BME280;16035;53.594;9.952;2023-07-13T08:36:25;101261.56;;;21.06;66.94
28921;BME280;16035;53.594;9.952;2023-07-13T08:38:25;101261.09;;;21.04;67.21
28921;BME280;16035;53.594;9.952;2023-07-13T08:40:27;101257.22;;;21.14;67.18
28921;BME280;16035;53.594;9.952;2023-07-13T08:44:43;101255.28;;;21.89;66.88
28921;BME280;16035;53.594;9.952;2023-07-13T08:46:45;101251.22;;;22.38;66.52
28921;BME280;16035;53.594;9.952;2023-07-13T08:49:12;101251.38;;;22.33;64.80
28921;BME280;16035;53.594;9.952;2023-07-13T08:53:46;101252.16;;;21.64;65.73
28921;BME280;16035;53.594;9.952;2023-07-13T08:55:48;101257.50;;;21.43;65.69
28921;BME280;16035;53.594;9.952;2023-07-13T08:58:00;101252.97;;;21.65;66.40
28921;BME280;16035;53.594;9.952;2023-07-13T09:00:02;101249.38;;;21.56;65.19
28921;BME280;16035;53.594;9.952;2023-07-13T09:02:26;101249.09;;;22.27;65.86
28921;BME280;16035;53.594;9.952;2023-07-13T09:04:29;101250.16;;;22.69;64.81
28921;BME280;16035;53.594;9.952;2023-07-13T09:06:46;101250.38;;;23.02;62.84
28921;BME280;16035;53.594;9.952;2023-07-13T09:09:04;101248.59;;;23.86;62.42
28921;BME280;16035;53.594;9.952;2023-07-13T09:16:04;101240.78;;;23.29;61.45
28921;BME280;16035;53.594;9.952;2023-07-13T09:18:10;101246.06;;;23.22;61.13
28921;BME280;16035;53.594;9.952;2023-07-13T09:22:28;101252.13;;;23.45;61.36
28921;BME280;16035;53.594;9.952;2023-07-13T09:24:37;101247.38;;;23.45;60.78
28921;BME280;16035;53.594;9.952;2023-07-13T09:26:37;101250.59;;;23.27;61.11
28921;BME280;16035;53.594;9.952;2023-07-13T09:28:46;101249.41;;;23.36;59.96
28921;BME280;16035;53.594;9.952;2023-07-13T09:31:07;101244.56;;;22.95;59.60
28921;BME280;16035;53.594;9.952;2023-07-13T09:33:10;101244.91;;;23.23;61.38
28921;BME280;16035;53.594;9.952;2023-07-13T09:35:12;101244.25;;;23.47;60.85
28921;BME280;16035;53.594;9.952;2023-07-13T09:37:15;101243.69;;;24.25;60.75
28921;BME280;16035;53.594;9.952;2023-07-13T09:39:27;101248.03;;;24.92;58.86
28921;BME280;16035;53.594;9.952;2023-07-13T09:41:48;101239.38;;;25.18;57.70
28921;BME280;16035;53.594;9.952;2023-07-13T09:46:20;101256.38;;;26.06;56.02
28921;BME280;16035;53.594;9.952;2023-07-13T09:48:22;101255.13;;;26.76;56.56
28921;BME280;16035;53.594;9.952;2023-07-13T09:50:22;101254.88;;;27.28;55.56
28921;BME280;16035;53.594;9.952;2023-07-13T09:52:22;101263.06;;;27.21;51.56
28921;BME280;16035;53.594;9.952;2023-07-13T09:54:25;101260.19;;;27.17;51.81
28921;BME280;16035;53.594;9.952;2023-07-13T09:56:29;101261.00;;;27.34;50.87
28921;BME280;16035;53.594;9.952;2023-07-13T09:58:30;101250.16;;;27.32;50.88
28921;BME280;16035;53.594;9.952;2023-07-13T10:00:32;101266.34;;;26.63;51.15
28921;BME280;16035;53.594;9.952;2023-07-13T10:02:35;101259.97;;;25.79;51.25
28921;BME280;16035;53.594;9.952;2023-07-13T10:04:35;101259.41;;;25.12;52.55
28921;BME280;16035;53.594;9.952;2023-07-13T10:06:36;101268.81;;;24.62;53.44
28921;BME280;16035;53.594;9.952;2023-07-13T10:08:37;101263.44;;;25.02;53.43
28921;BME280;16035;53.594;9.952;2023-07-13T10:10:37;101267.66;;;25.33;51.66
28921;BME280;16035;53.594;9.952;2023-07-13T10:12:38;101262.25;;;24.91;51.88
28921;BME280;16035;53.594;9.952;2023-07-13T10:14:40;101261.09;;;24.80;52.28
28921;BME280;16035;53.594;9.952;2023-07-13T10:16:44;101269.69;;;24.87;52.55
28921;BME280;16035;53.594;9.952;2023-07-13T10:19:00;101260.56;;;25.60;51.51
28921;BME280;16035;53.594;9.952;2023-07-13T10:21:22;101249.91;;;26.30;50.06
28921;BME280;16035;53.594;9.952;2023-07-13T10:23:24;101242.22;;;26.39;49.77
28921;BME280;16035;53.594;9.952;2023-07-13T10:25:32;101238.19;;;26.25;50.45
28921;BME280;16035;53.594;9.952;2023-07-13T10:27:34;101249.28;;;26.81;49.97
28921;BME280;16035;53.594;9.952;2023-07-13T10:30:19;101240.69;;;27.53;47.99
28921;BME280;16035;53.594;9.952;2023-07-13T10:32:22;101241.28;;;28.36;48.63
28921;BME280;16035;53.594;9.952;2023-07-13T10:34:24;101232.53;;;28.60;47.04
28921;BME280;16035;53.594;9.952;2023-07-13T10:36:35;101240.34;;;28.74;46.17
28921;BME280;16035;53.594;9.952;2023-07-13T10:38:39;101243.22;;;28.78;45.02
28921;BME280;16035;53.594;9.952;2023-07-13T10:40:51;101248.44;;;28.56;42.35
28921;BME280;16035;53.594;9.952;2023-07-13T10:42:58;101237.56;;;28.51;43.86
28921;BME280;16035;53.594;9.952;2023-07-13T10:44:59;101239.47;;;28.47;45.05
28921;BME280;16035;53.594;9.952;2023-07-13T10:47:02;101240.22;;;28.44;44.28
28921;BME280;16035;53.594;9.952;2023-07-13T10:49:05;101246.50;;;28.37;44.40
28921;BME280;16035;53.594;9.952;2023-07-13T10:51:10;101234.28;;;28.07;43.34
28921;BME280;16035;53.594;9.952;2023-07-13T10:53:41;101247.72;;;27.46;42.74
28921;BME280;16035;53.594;9.952;2023-07-13T10:57:51;101243.91;;;26.88;44.51